Time;durP1;ratioP1;P1;durP2;ratioP2;P2;SDS_P1;SDS_P2;PMS_P1;PMS_P2;Temp;Humidity;BMP_temperature;BMP_pressure;BME280_temperature;BME280_humidity;BME280_pressure;Samples;Min_cycle;Max_cycle;Signal;HPM_P1;HPM_P2
2022/03/11 00:01:22;;;;;;;4.65;4.25;;;;;;;;;;5116694;28;20287;-51
2022/03/11 00:03:49;;;;;;;4.20;3.85;;;;;;;;;;5117072;28;20258;-51
2022/03/11 00:06:18;;;;;;;4.57;4.18;;;;;;;;;;5120457;28;20266;-51
2022/03/11 00:08:46;;;;;;;4.75;4.35;;;;;;;;;;5119324;28;20227;-49
2022/03/11 00:11:13;;;;;;;4.57;4.18;;;;;;;;;;5120446;27;20227;-50
2022/03/11 00:13:40;;;;;;;4.72;4.22;;;;;;;;;;5120129;28;20226;-50
2022/03/11 00:16:07;;;;;;;4.68;4.28;;;;;;;;;;5120265;28;20630;-49
2022/03/11 00:18:35;;;;;;;4.85;4.45;;;;;;;;;;5119972;28;20226;-52
2022/03/11 00:21:02;;;;;;;4.57;4.15;;;;;;;;;;5119368;28;20247;-49
2022/03/11 00:23:31;;;;;;;4.72;4.32;;;;;;;;;;5119892;27;20541;-49
2022/03/11 00:25:58;;;;;;;4.38;3.97;;;;;;;;;;5120414;28;20231;-50
2022/03/11 00:28:25;;;;;;;4.60;4.20;;;;;;;;;;5119485;27;20287;-49
2022/03/11 00:30:53;;;;;;;4.45;4.05;;;;;;;;;;5119821;28;20256;-50
2022/03/11 00:33:20;;;;;;;4.80;4.40;;;;;;;;;;5119682;28;20291;-51
2022/03/11 00:35:48;;;;;;;4.43;4.05;;;;;;;;;;5118881;27;20227;-50
2022/03/11 00:38:15;;;;;;;4.95;4.47;;;;;;;;;;5120069;27;20261;-50
2022/03/11 00:40:44;;;;;;;4.38;3.97;;;;;;;;;;5119386;27;20230;-51
2022/03/11 00:43:12;;;;;;;4.00;3.60;;;;;;;;;;5119810;28;20317;-49
2022/03/11 00:45:39;;;;;;;4.82;4.43;;;;;;;;;;5119521;28;20329;-50
2022/03/11 00:48:07;;;;;;;4.25;3.85;;;;;;;;;;5119854;28;20270;-49
2022/03/11 00:50:34;;;;;;;4.38;4.03;;;;;;;;;;5119215;28;20257;-49
2022/03/11 00:53:03;;;;;;;4.35;3.95;;;;;;;;;;5119814;27;20312;-50
2022/03/11 00:55:30;;;;;;;4.45;4.05;;;;;;;;;;5119597;27;20237;-49
2022/03/11 00:57:59;;;;;;;4.53;4.13;;;;;;;;;;5119980;27;20273;-50
2022/03/11 01:00:27;;;;;;;4.25;3.95;;;;;;;;;;5119854;28;20231;-50
2022/03/11 01:02:54;;;;;;;4.20;3.80;;;;;;;;;;5120165;28;20566;-49
2022/03/11 01:05:22;;;;;;;4.00;3.70;;;;;;;;;;5119398;28;20260;-50
2022/03/11 01:07:51;;;;;;;3.92;3.63;;;;;;;;;;5119990;28;20223;-49
2022/03/11 01:10:18;;;;;;;4.15;3.75;;;;;;;;;;5119474;28;20294;-49
2022/03/11 01:12:46;;;;;;;4.03;3.72;;;;;;;;;;5119439;28;20259;-49
2022/03/11 01:15:15;;;;;;;3.67;3.38;;;;;;;;;;5118873;27;20311;-50
2022/03/11 01:17:42;;;;;;;3.88;3.50;;;;;;;;;;5119278;28;20330;-50
2022/03/11 01:20:11;;;;;;;4.20;3.90;;;;;;;;;;5118350;27;20610;-50
2022/03/11 01:22:39;;;;;;;4.28;3.88;;;;;;;;;;5117493;28;20270;-50
2022/03/11 01:25:07;;;;;;;3.90;3.50;;;;;;;;;;5118297;27;20262;-51
2022/03/11 01:27:36;;;;;;;4.00;3.70;;;;;;;;;;5117856;28;20325;-50
2022/03/11 01:30:05;;;;;;;4.50;4.10;;;;;;;;;;5118235;28;20683;-50
2022/03/11 01:32:34;;;;;;;4.03;3.72;;;;;;;;;;5117866;27;20292;-50
2022/03/11 01:35:01;;;;;;;4.03;3.63;;;;;;;;;;5118061;28;20227;-50
2022/03/11 01:37:29;;;;;;;3.88;3.58;;;;;;;;;;5118059;27;20222;-50
2022/03/11 01:39:56;;;;;;;3.60;3.30;;;;;;;;;;5118085;28;20227;-49
2022/03/11 01:42:24;;;;;;;3.60;3.30;;;;;;;;;;5117327;27;20226;-51
2022/03/11 01:44:52;;;;;;;3.78;3.47;;;;;;;;;;5118393;28;20256;-50
2022/03/11 01:47:20;;;;;;;3.80;3.50;;;;;;;;;;5118199;28;20234;-50
2022/03/11 01:49:49;;;;;;;3.80;3.50;;;;;;;;;;5118969;27;20433;-50
2022/03/11 01:52:17;;;;;;;4.18;3.70;;;;;;;;;;5118597;28;20238;-50
2022/03/11 01:54:45;;;;;;;3.40;3.10;;;;;;;;;;5119380;27;20226;-50
2022/03/11 01:57:14;;;;;;;3.70;3.40;;;;;;;;;;5118054;28;20230;-51
2022/03/11 01:59:41;;;;;;;3.42;3.13;;;;;;;;;;5118659;28;20241;-50
2022/03/11 02:02:09;;;;;;;4.22;3.83;;;;;;;;;;5118750;28;20237;-50
2022/03/11 02:04:37;;;;;;;3.38;3.10;;;;;;;;;;5117809;28;20295;-50
2022/03/11 02:07:06;;;;;;;3.38;3.08;;;;;;;;;;5118184;27;20333;-50
2022/03/11 02:09:33;;;;;;;3.45;3.15;;;;;;;;;;5117643;28;20230;-50
2022/03/11 02:12:01;;;;;;;3.50;3.20;;;;;;;;;;5117482;27;20311;-50
2022/03/11 02:14:28;;;;;;;3.33;3.03;;;;;;;;;;5117280;28;20262;-50
2022/03/11 02:16:56;;;;;;;3.83;3.53;;;;;;;;;;5117858;28;20231;-50
2022/03/11 02:19:24;;;;;;;3.58;3.28;;;;;;;;;;5117591;27;20283;-50
2022/03/11 02:21:54;;;;;;;3.63;3.33;;;;;;;;;;5117723;28;20273;-50
2022/03/11 02:24:27;;;;;;;3.50;3.20;;;;;;;;;;5117271;27;20716;-50
2022/03/11 02:26:55;;;;;;;3.60;3.30;;;;;;;;;;5117642;28;20230;-50
2022/03/11 02:29:23;;;;;;;3.53;3.22;;;;;;;;;;5118409;28;20237;-50
2022/03/11 02:31:50;;;;;;;3.72;3.42;;;;;;;;;;5117620;28;20258;-49
2022/03/11 02:34:18;;;;;;;3.42;3.13;;;;;;;;;;5117203;28;20238;-50
2022/03/11 02:36:45;;;;;;;3.40;3.10;;;;;;;;;;5116962;27;20303;-50
2022/03/11 02:39:13;;;;;;;3.65;3.35;;;;;;;;;;5117438;28;20226;-50
2022/03/11 02:41:43;;;;;;;3.33;3.03;;;;;;;;;;5116784;27;20254;-50
2022/03/11 02:44:11;;;;;;;3.22;2.92;;;;;;;;;;5117327;28;20271;-50
2022/03/11 02:46:38;;;;;;;3.60;3.30;;;;;;;;;;5117038;27;20226;-50
2022/03/11 02:49:06;;;;;;;3.30;3.00;;;;;;;;;;5116566;28;20227;-50
2022/03/11 02:51:33;;;;;;;3.35;3.05;;;;;;;;;;5117658;28;20227;-50
2022/03/11 02:56:31;;;;;;;3.78;3.47;;;;;;;;;;5175577;22;20644;-49
2022/03/11 02:59:00;;;;;;;3.40;3.10;;;;;;;;;;5136481;27;20229;-49
2022/03/11 03:01:27;;;;;;;3.60;3.13;;;;;;;;;;5135955;27;20229;-50
2022/03/11 03:03:55;;;;;;;3.50;3.20;;;;;;;;;;5137538;27;20203;-50
2022/03/11 03:06:22;;;;;;;3.40;3.10;;;;;;;;;;5137408;27;20585;-50
2022/03/11 03:08:49;;;;;;;3.40;3.10;;;;;;;;;;5137090;27;20611;-50
2022/03/11 03:11:17;;;;;;;3.58;3.13;;;;;;;;;;5137122;27;20202;-50
2022/03/11 03:13:44;;;;;;;3.97;3.58;;;;;;;;;;5137060;27;20529;-50
2022/03/11 03:16:13;;;;;;;3.88;3.15;;;;;;;;;;5137204;27;20208;-50
2022/03/11 03:18:41;;;;;;;3.50;3.20;;;;;;;;;;5137240;27;20600;-50
2022/03/11 03:21:08;;;;;;;3.33;3.10;;;;;;;;;;5137283;27;20251;-49
2022/03/11 03:23:36;;;;;;;3.40;3.10;;;;;;;;;;5136948;27;20210;-49
2022/03/11 03:26:03;;;;;;;3.47;3.10;;;;;;;;;;5137321;27;20254;-49
2022/03/11 03:28:31;;;;;;;3.63;3.30;;;;;;;;;;5136664;28;20226;-49
2022/03/11 03:30:58;;;;;;;3.47;3.17;;;;;;;;;;5137395;28;20461;-49
2022/03/11 03:33:27;;;;;;;3.75;3.42;;;;;;;;;;5137261;27;20244;-49
2022/03/11 03:35:55;;;;;;;3.58;3.28;;;;;;;;;;5137295;28;20484;-49
2022/03/11 03:38:22;;;;;;;3.58;3.28;;;;;;;;;;5138617;27;20198;-49
2022/03/11 03:40:50;;;;;;;3.60;3.30;;;;;;;;;;5141844;27;20609;-49
2022/03/11 03:43:18;;;;;;;3.45;3.15;;;;;;;;;;5141238;27;20217;-49
2022/03/11 03:45:46;;;;;;;3.50;3.20;;;;;;;;;;5140865;27;20270;-49
2022/03/11 03:48:13;;;;;;;3.42;3.13;;;;;;;;;;5141196;27;20252;-50
2022/03/11 03:50:42;;;;;;;3.70;3.40;;;;;;;;;;5140721;27;20292;-50
2022/03/11 03:53:09;;;;;;;3.60;3.17;;;;;;;;;;5140821;27;20266;-49
2022/03/11 03:55:37;;;;;;;3.47;3.17;;;;;;;;;;5140637;27;20230;-50
2022/03/11 03:58:04;;;;;;;3.47;3.17;;;;;;;;;;5141346;27;20206;-50
2022/03/11 04:00:32;;;;;;;3.78;3.47;;;;;;;;;;5141357;27;20212;-50
2022/03/11 04:03:00;;;;;;;3.67;3.38;;;;;;;;;;5141380;27;20210;-49
2022/03/11 04:05:27;;;;;;;4.05;3.47;;;;;;;;;;5140957;27;20510;-49
2022/03/11 04:07:56;;;;;;;3.40;3.10;;;;;;;;;;5140694;27;20277;-50
2022/03/11 04:10:24;;;;;;;3.58;3.22;;;;;;;;;;5141022;27;20233;-50
2022/03/11 04:12:52;;;;;;;3.50;3.20;;;;;;;;;;5140699;27;20316;-50
2022/03/11 04:15:19;;;;;;;3.67;3.38;;;;;;;;;;5140665;27;20578;-50
2022/03/11 04:17:47;;;;;;;3.35;3.00;;;;;;;;;;5140517;27;20198;-50
2022/03/11 04:20:14;;;;;;;3.45;3.15;;;;;;;;;;5141065;27;20565;-49
2022/03/11 04:22:42;;;;;;;3.60;3.30;;;;;;;;;;5140546;27;20220;-50
2022/03/11 04:25:12;;;;;;;3.60;3.30;;;;;;;;;;5140683;27;20305;-50
2022/03/11 04:27:40;;;;;;;3.78;3.47;;;;;;;;;;5140294;27;20261;-50
2022/03/11 04:30:07;;;;;;;4.10;3.70;;;;;;;;;;5140314;27;20206;-50
2022/03/11 04:32:35;;;;;;;3.50;3.20;;;;;;;;;;5139883;27;20593;-49
2022/03/11 04:35:03;;;;;;;3.88;3.55;;;;;;;;;;5139668;27;20203;-50
2022/03/11 04:37:30;;;;;;;3.55;3.22;;;;;;;;;;5140317;27;20198;-50
2022/03/11 04:39:58;;;;;;;4.00;3.40;;;;;;;;;;5139659;27;20202;-50
2022/03/11 04:42:27;;;;;;;3.72;3.40;;;;;;;;;;5139561;27;20233;-50
2022/03/11 04:44:55;;;;;;;3.60;3.30;;;;;;;;;;5140313;27;20202;-49
2022/03/11 04:47:23;;;;;;;3.80;3.30;;;;;;;;;;5140290;27;20203;-50
2022/03/11 04:49:50;;;;;;;3.70;3.30;;;;;;;;;;5139530;27;20219;-50
2022/03/11 04:52:18;;;;;;;4.20;3.80;;;;;;;;;;5139871;27;20217;-50
2022/03/11 04:54:47;;;;;;;3.42;3.13;;;;;;;;;;5139511;27;20471;-50
2022/03/11 04:57:14;;;;;;;3.50;3.20;;;;;;;;;;5139120;27;20277;-50
2022/03/11 04:59:46;;;;;;;3.85;3.55;;;;;;;;;;5139323;27;20202;-49
2022/03/11 05:02:13;;;;;;;3.95;3.55;;;;;;;;;;5139153;27;20206;-50
2022/03/11 05:04:41;;;;;;;4.05;3.45;;;;;;;;;;5139203;27;20202;-50
2022/03/11 05:07:10;;;;;;;3.65;3.35;;;;;;;;;;5139377;27;20213;-50
2022/03/11 05:09:38;;;;;;;3.75;3.45;;;;;;;;;;5139388;27;20214;-50
2022/03/11 05:12:06;;;;;;;4.10;3.47;;;;;;;;;;5139372;27;20209;-50
2022/03/11 05:14:34;;;;;;;4.85;3.28;;;;;;;;;;5139290;27;20498;-50
2022/03/11 05:17:03;;;;;;;3.67;3.38;;;;;;;;;;5138958;27;20241;-50
2022/03/11 05:19:30;;;;;;;4.43;3.80;;;;;;;;;;5138614;27;20573;-50
2022/03/11 05:21:58;;;;;;;4.15;3.75;;;;;;;;;;5138768;27;20202;-50
2022/03/11 05:24:25;;;;;;;3.50;3.20;;;;;;;;;;5138317;27;20221;-50
2022/03/11 05:26:53;;;;;;;3.60;3.30;;;;;;;;;;5137939;27;20634;-50
2022/03/11 05:29:22;;;;;;;5.15;3.85;;;;;;;;;;5137135;27;20229;-50
2022/03/11 05:31:50;;;;;;;5.55;3.67;;;;;;;;;;5138765;27;20454;-50
2022/03/11 05:34:19;;;;;;;4.20;3.80;;;;;;;;;;5137816;27;20285;-50
2022/03/11 05:36:47;;;;;;;3.67;3.38;;;;;;;;;;5137886;27;20203;-50
2022/03/11 05:39:14;;;;;;;4.15;3.75;;;;;;;;;;5138075;27;20221;-50
2022/03/11 05:41:42;;;;;;;4.38;3.15;;;;;;;;;;5137076;27;20565;-50
2022/03/11 05:44:10;;;;;;;4.03;3.58;;;;;;;;;;5135162;27;20301;-50
2022/03/11 05:46:37;;;;;;;4.20;3.80;;;;;;;;;;5135036;27;20202;-50
2022/03/11 05:49:05;;;;;;;3.63;3.33;;;;;;;;;;5134962;27;20225;-50
2022/03/11 05:51:34;;;;;;;3.63;3.20;;;;;;;;;;5136073;27;20198;-49
2022/03/11 05:54:02;;;;;;;3.80;3.40;;;;;;;;;;5136444;27;20390;-50
2022/03/11 05:56:29;;;;;;;3.85;3.38;;;;;;;;;;5121493;27;20291;-50
2022/03/11 05:58:57;;;;;;;4.28;3.88;;;;;;;;;;5114882;27;20802;-50
2022/03/11 06:01:25;;;;;;;4.22;3.28;;;;;;;;;;5113476;28;20218;-49
2022/03/11 06:03:52;;;;;;;5.38;3.40;;;;;;;;;;5115158;28;20264;-50
2022/03/11 06:06:20;;;;;;;4.18;3.70;;;;;;;;;;5113801;28;20708;-50
2022/03/11 06:08:49;;;;;;;4.03;3.30;;;;;;;;;;5113633;28;20322;-49
2022/03/11 06:11:17;;;;;;;4.97;3.33;;;;;;;;;;5114629;28;20279;-50
2022/03/11 06:13:44;;;;;;;3.80;3.42;;;;;;;;;;5113811;28;20577;-50
2022/03/11 06:16:12;;;;;;;4.03;3.50;;;;;;;;;;5113571;28;20283;-50
2022/03/11 06:18:40;;;;;;;3.97;3.50;;;;;;;;;;5112547;28;20199;-50
2022/03/11 06:21:07;;;;;;;4.03;3.35;;;;;;;;;;5113021;28;20214;-50
2022/03/11 06:23:36;;;;;;;3.92;3.50;;;;;;;;;;5113872;28;20206;-50
2022/03/11 06:26:04;;;;;;;4.25;3.50;;;;;;;;;;5113862;28;20203;-50
2022/03/11 06:28:32;;;;;;;4.10;3.70;;;;;;;;;;5114985;28;20335;-50
2022/03/11 06:31:00;;;;;;;3.72;3.40;;;;;;;;;;5114545;28;20206;-50
2022/03/11 06:33:27;;;;;;;4.85;3.58;;;;;;;;;;5114792;28;20226;-50
2022/03/11 06:35:55;;;;;;;3.80;3.45;;;;;;;;;;5112305;28;20259;-50
2022/03/11 06:38:23;;;;;;;4.13;3.60;;;;;;;;;;5112911;28;20191;-50
2022/03/11 06:40:51;;;;;;;3.97;3.40;;;;;;;;;;5112071;28;20203;-50
2022/03/11 06:43:21;;;;;;;4.05;3.65;;;;;;;;;;5114258;28;20199;-50
2022/03/11 06:45:49;;;;;;;3.50;3.20;;;;;;;;;;5114840;28;20268;-50
2022/03/11 06:48:18;;;;;;;4.07;3.63;;;;;;;;;;5112981;28;20219;-50
2022/03/11 06:50:45;;;;;;;4.40;3.58;;;;;;;;;;5112752;28;20438;-50
2022/03/11 06:53:15;;;;;;;5.38;3.40;;;;;;;;;;5113286;28;20203;-50
2022/03/11 06:55:43;;;;;;;3.80;3.28;;;;;;;;;;5110861;28;20217;-50
2022/03/11 06:58:11;;;;;;;4.00;3.35;;;;;;;;;;5112742;28;20199;-50
2022/03/11 07:00:40;;;;;;;3.67;3.38;;;;;;;;;;5113507;28;20466;-50
2022/03/11 07:03:08;;;;;;;3.83;3.50;;;;;;;;;;5113398;28;20427;-50
2022/03/11 07:05:35;;;;;;;3.97;3.47;;;;;;;;;;5113534;28;20206;-50
2022/03/11 07:08:03;;;;;;;4.13;3.50;;;;;;;;;;5112214;28;20195;-50
2022/03/11 07:10:31;;;;;;;4.45;3.70;;;;;;;;;;5113683;28;20222;-50
2022/03/11 07:12:59;;;;;;;4.68;3.80;;;;;;;;;;5112920;28;20670;-50
2022/03/11 07:15:27;;;;;;;4.05;3.42;;;;;;;;;;5115113;28;20211;-50
2022/03/11 07:17:55;;;;;;;5.00;3.85;;;;;;;;;;5113065;28;20722;-50
2022/03/11 07:20:23;;;;;;;4.85;3.67;;;;;;;;;;5113663;28;20278;-50
2022/03/11 07:22:51;;;;;;;5.57;4.03;;;;;;;;;;5112840;28;20609;-50
2022/03/11 07:25:20;;;;;;;4.40;3.78;;;;;;;;;;5114183;28;20266;-50
2022/03/11 07:27:48;;;;;;;6.05;4.32;;;;;;;;;;5113883;28;20233;-50
2022/03/11 07:30:16;;;;;;;6.50;4.28;;;;;;;;;;5113631;28;20229;-50
2022/03/11 07:32:45;;;;;;;5.25;4.70;;;;;;;;;;5113967;28;20394;-50
2022/03/11 07:35:14;;;;;;;6.03;4.72;;;;;;;;;;5112737;28;20209;-50
2022/03/11 07:37:41;;;;;;;7.10;4.97;;;;;;;;;;5114071;28;20195;-50
2022/03/11 07:40:10;;;;;;;7.25;5.07;;;;;;;;;;5113817;28;20211;-50
2022/03/11 07:42:38;;;;;;;7.47;4.60;;;;;;;;;;5113953;28;20202;-50
2022/03/11 07:45:07;;;;;;;6.95;5.30;;;;;;;;;;5113326;28;20211;-50
2022/03/11 07:47:35;;;;;;;7.32;5.35;;;;;;;;;;5114290;28;20211;-50
2022/03/11 07:50:02;;;;;;;6.15;4.65;;;;;;;;;;5113460;28;20226;-50
2022/03/11 07:52:31;;;;;;;6.93;5.47;;;;;;;;;;5113652;28;20229;-50
2022/03/11 07:54:59;;;;;;;6.93;5.57;;;;;;;;;;5112084;28;20509;-50
2022/03/11 07:57:26;;;;;;;6.60;5.18;;;;;;;;;;5112378;28;20393;-50
2022/03/11 07:59:54;;;;;;;7.63;5.63;;;;;;;;;;5112269;28;20199;-50
2022/03/11 08:02:21;;;;;;;9.13;5.70;;;;;;;;;;5111555;28;20195;-50
2022/03/11 08:04:49;;;;;;;6.97;4.85;;;;;;;;;;5112367;28;20337;-50
2022/03/11 08:07:17;;;;;;;5.82;5.03;;;;;;;;;;5112877;28;20203;-50
2022/03/11 08:09:46;;;;;;;8.05;5.25;;;;;;;;;;5113147;28;20223;-50
2022/03/11 08:12:13;;;;;;;7.60;5.25;;;;;;;;;;5113341;28;20203;-50
2022/03/11 08:14:41;;;;;;;6.88;5.07;;;;;;;;;;5112578;28;20288;-50
2022/03/11 08:17:09;;;;;;;6.55;4.90;;;;;;;;;;5113534;28;20286;-50
2022/03/11 08:19:37;;;;;;;5.60;4.93;;;;;;;;;;5112956;28;20210;-50
2022/03/11 08:22:05;;;;;;;6.75;5.07;;;;;;;;;;5113388;28;20215;-50
2022/03/11 08:24:32;;;;;;;6.57;5.43;;;;;;;;;;5113000;28;20202;-50
2022/03/11 08:27:01;;;;;;;7.38;5.43;;;;;;;;;;5116341;28;20569;-50
2022/03/11 08:29:33;;;;;;;6.05;5.10;;;;;;;;;;5116785;28;20223;-50
2022/03/11 08:32:00;;;;;;;5.93;4.95;;;;;;;;;;5117294;28;20214;-50
2022/03/11 08:34:28;;;;;;;5.88;4.60;;;;;;;;;;5117472;28;20210;-50
2022/03/11 08:36:56;;;;;;;7.68;5.22;;;;;;;;;;5117243;28;20203;-50
2022/03/11 08:39:23;;;;;;;6.22;4.80;;;;;;;;;;5116140;28;20462;-50
2022/03/11 08:41:51;;;;;;;5.97;4.55;;;;;;;;;;5115574;27;20515;-50
2022/03/11 08:44:20;;;;;;;7.18;5.10;;;;;;;;;;5114137;28;20386;-50
2022/03/11 08:46:48;;;;;;;5.50;4.75;;;;;;;;;;5116193;28;20195;-50
2022/03/11 08:49:16;;;;;;;6.25;5.03;;;;;;;;;;5115722;28;20233;-50
2022/03/11 08:51:44;;;;;;;5.28;4.38;;;;;;;;;;5116220;27;20210;-50
2022/03/11 08:54:11;;;;;;;5.95;4.55;;;;;;;;;;5115978;28;20481;-50
2022/03/11 08:56:40;;;;;;;5.43;4.50;;;;;;;;;;5116057;28;20241;-50
2022/03/11 08:59:07;;;;;;;5.50;4.38;;;;;;;;;;5115754;28;20658;-50
2022/03/11 09:01:36;;;;;;;5.53;4.43;;;;;;;;;;5116542;28;20532;-50
2022/03/11 09:04:04;;;;;;;6.25;4.63;;;;;;;;;;5116263;28;20716;-50
2022/03/11 09:06:32;;;;;;;6.50;4.30;;;;;;;;;;5114909;28;20297;-50
2022/03/11 09:09:01;;;;;;;5.65;4.45;;;;;;;;;;5115021;28;20258;-50
2022/03/11 09:11:29;;;;;;;5.55;4.40;;;;;;;;;;5115499;28;20195;-50
2022/03/11 09:13:56;;;;;;;4.88;4.38;;;;;;;;;;5116013;28;20218;-50
2022/03/11 09:16:24;;;;;;;5.20;4.30;;;;;;;;;;5117163;28;20203;-50
2022/03/11 09:18:54;;;;;;;4.85;4.05;;;;;;;;;;5116084;28;20453;-50
2022/03/11 09:21:22;;;;;;;5.65;4.10;;;;;;;;;;5114563;28;20202;-50
2022/03/11 09:23:49;;;;;;;5.68;4.60;;;;;;;;;;5115986;28;20266;-50
2022/03/11 09:26:17;;;;;;;5.45;4.13;;;;;;;;;;5115312;28;20543;-50
2022/03/11 09:28:45;;;;;;;4.70;4.00;;;;;;;;;;5115474;28;20199;-50
2022/03/11 09:31:12;;;;;;;4.53;3.88;;;;;;;;;;5114425;28;20574;-50
2022/03/11 09:33:40;;;;;;;5.28;4.18;;;;;;;;;;5114275;28;20211;-50
2022/03/11 09:36:10;;;;;;;5.10;4.15;;;;;;;;;;5114753;28;20500;-49
2022/03/11 09:38:38;;;;;;;5.43;4.10;;;;;;;;;;5115326;28;20264;-50
2022/03/11 09:41:06;;;;;;;5.32;4.13;;;;;;;;;;5114812;28;20207;-50
2022/03/11 09:43:33;;;;;;;4.60;3.90;;;;;;;;;;5115447;28;20293;-50
2022/03/11 09:46:02;;;;;;;5.03;3.90;;;;;;;;;;5115928;28;20446;-50
2022/03/11 09:48:30;;;;;;;4.72;3.67;;;;;;;;;;5114336;28;20213;-50
2022/03/11 09:50:59;;;;;;;5.60;4.38;;;;;;;;;;5115857;28;20280;-50
2022/03/11 09:53:28;;;;;;;4.47;3.92;;;;;;;;;;5115596;28;20264;-50
2022/03/11 09:55:56;;;;;;;4.45;3.90;;;;;;;;;;5116191;28;20230;-50
2022/03/11 09:58:23;;;;;;;4.60;4.05;;;;;;;;;;5117011;28;20207;-50
2022/03/11 10:00:51;;;;;;;4.78;4.10;;;;;;;;;;5116451;28;20609;-50
2022/03/11 10:03:18;;;;;;;4.20;3.80;;;;;;;;;;5115725;28;20638;-50
2022/03/11 10:05:47;;;;;;;5.15;3.90;;;;;;;;;;5115793;28;20206;-50
2022/03/11 10:08:15;;;;;;;4.68;3.55;;;;;;;;;;5115619;28;20209;-50
2022/03/11 10:10:45;;;;;;;3.97;3.40;;;;;;;;;;5115820;28;20254;-50
2022/03/11 10:13:13;;;;;;;4.13;3.72;;;;;;;;;;5115623;28;20194;-50
2022/03/11 10:15:41;;;;;;;4.43;3.30;;;;;;;;;;5116404;28;20294;-50
2022/03/11 10:18:10;;;;;;;4.20;3.80;;;;;;;;;;5115889;28;20203;-50
2022/03/11 10:20:38;;;;;;;4.82;3.78;;;;;;;;;;5116070;28;20264;-50
2022/03/11 10:23:11;;;;;;;4.20;3.80;;;;;;;;;;5116435;28;20203;-50
2022/03/11 10:25:39;;;;;;;4.10;3.60;;;;;;;;;;5115951;28;20203;-50
2022/03/11 10:28:09;;;;;;;3.70;3.40;;;;;;;;;;5115541;28;20203;-50
2022/03/11 10:30:38;;;;;;;4.20;3.70;;;;;;;;;;5115496;28;20219;-50
2022/03/11 10:33:06;;;;;;;4.32;3.83;;;;;;;;;;5114820;28;20309;-50
2022/03/11 10:35:36;;;;;;;4.20;3.80;;;;;;;;;;5114811;28;20225;-50
2022/03/11 10:38:05;;;;;;;3.78;3.40;;;;;;;;;;5115155;28;20218;-50
2022/03/11 10:40:33;;;;;;;4.53;3.70;;;;;;;;;;5115290;28;20204;-50
2022/03/11 10:43:12;;;;;;;3.72;3.33;;;;;;;;;;5114616;28;20761;-50
2022/03/11 10:45:46;;;;;;;3.90;3.40;;;;;;;;;;5114468;28;20527;-50
2022/03/11 10:48:14;;;;;;;4.07;3.35;;;;;;;;;;5113700;28;20233;-50
2022/03/11 10:50:42;;;;;;;3.83;3.25;;;;;;;;;;5114977;28;20518;-50
2022/03/11 10:53:09;;;;;;;4.22;3.83;;;;;;;;;;5133813;27;20294;-50
2022/03/11 10:55:39;;;;;;;3.85;3.38;;;;;;;;;;5136219;27;20202;-50
2022/03/11 10:58:07;;;;;;;4.20;3.47;;;;;;;;;;5135778;27;20275;-50
2022/03/11 11:00:37;;;;;;;3.47;3.00;;;;;;;;;;5135188;27;20297;-50
2022/03/11 11:03:06;;;;;;;3.60;3.13;;;;;;;;;;5134782;27;20238;-50
2022/03/11 11:05:34;;;;;;;3.95;3.42;;;;;;;;;;5135852;27;20643;-50
2022/03/11 11:08:02;;;;;;;3.47;3.10;;;;;;;;;;5135530;27;20213;-50
2022/03/11 11:10:30;;;;;;;3.40;3.10;;;;;;;;;;5135396;27;20218;-50
2022/03/11 11:12:58;;;;;;;2.92;2.72;;;;;;;;;;5135304;27;20241;-50
2022/03/11 11:15:26;;;;;;;3.38;3.08;;;;;;;;;;5134214;27;20190;-50
2022/03/11 11:17:55;;;;;;;3.65;3.28;;;;;;;;;;5133820;27;20217;-50
2022/03/11 11:20:24;;;;;;;3.90;3.50;;;;;;;;;;5134805;28;20279;-50
2022/03/11 11:22:52;;;;;;;3.88;3.40;;;;;;;;;;5135140;27;20210;-50
2022/03/11 11:25:20;;;;;;;3.92;3.33;;;;;;;;;;5134147;27;20202;-50
2022/03/11 11:27:49;;;;;;;3.50;3.20;;;;;;;;;;5134308;27;20225;-50
2022/03/11 11:30:18;;;;;;;3.50;3.20;;;;;;;;;;5134449;28;20229;-50
2022/03/11 11:32:46;;;;;;;3.53;3.22;;;;;;;;;;5134540;28;20797;-50
2022/03/11 11:35:32;;;;;;;3.88;3.42;;;;;;;;;;5134211;28;20649;-50
2022/03/11 11:38:00;;;;;;;3.47;3.13;;;;;;;;;;5134469;28;20198;-50
2022/03/11 11:40:28;;;;;;;3.35;3.03;;;;;;;;;;5133324;28;20202;-50
2022/03/11 11:43:14;;;;;;;4.30;2.85;;;;;;;;;;5132316;28;20194;-50
2022/03/11 11:45:42;;;;;;;3.30;3.00;;;;;;;;;;5134386;28;20634;-50
2022/03/11 11:48:24;;;;;;;3.28;2.83;;;;;;;;;;5133844;28;20262;-50
2022/03/11 11:50:53;;;;;;;3.30;3.00;;;;;;;;;;5134066;27;20226;-50
2022/03/11 11:53:33;;;;;;;3.60;3.10;;;;;;;;;;5134006;28;20195;-50
2022/03/11 11:56:00;;;;;;;3.30;3.00;;;;;;;;;;5131783;27;20237;-50
2022/03/11 11:58:32;;;;;;;4.53;3.30;;;;;;;;;;5132060;27;20206;-50
2022/03/11 12:01:00;;;;;;;3.17;2.88;;;;;;;;;;5134435;27;20270;-50
2022/03/11 12:03:42;;;;;;;3.30;3.00;;;;;;;;;;5134307;27;20285;-50
2022/03/11 12:06:11;;;;;;;2.97;2.70;;;;;;;;;;5133936;27;20347;-50
2022/03/11 12:08:51;;;;;;;3.25;2.95;;;;;;;;;;5135220;27;20553;-50
2022/03/11 12:11:37;;;;;;;3.63;3.15;;;;;;;;;;5133530;27;20218;-50
2022/03/11 12:14:05;;;;;;;3.05;2.65;;;;;;;;;;5134903;27;20202;-50
2022/03/11 12:16:52;;;;;;;3.20;2.72;;;;;;;;;;5134365;27;20202;-50
2022/03/11 12:19:40;;;;;;;3.35;3.05;;;;;;;;;;5134570;27;20237;-50
2022/03/11 12:22:25;;;;;;;3.50;3.20;;;;;;;;;;5131005;27;20206;-50
2022/03/11 12:24:59;;;;;;;3.17;2.88;;;;;;;;;;5135112;27;20573;-50
2022/03/11 12:27:45;;;;;;;3.38;2.97;;;;;;;;;;5134190;27;20207;-50
2022/03/11 12:30:13;;;;;;;3.22;2.80;;;;;;;;;;5134140;27;20224;-50
2022/03/11 12:32:42;;;;;;;3.40;2.72;;;;;;;;;;5135001;27;20655;-50
2022/03/11 12:35:09;;;;;;;3.40;3.00;;;;;;;;;;5133650;27;20673;-50
2022/03/11 12:37:38;;;;;;;3.47;3.08;;;;;;;;;;5134816;27;20237;-50
2022/03/11 12:40:10;;;;;;;3.38;3.08;;;;;;;;;;5133723;27;20246;-51
2022/03/11 12:42:38;;;;;;;3.55;2.90;;;;;;;;;;5132941;27;20194;-50
2022/03/11 12:45:06;;;;;;;3.17;2.88;;;;;;;;;;5133504;27;20220;-50
2022/03/11 12:47:37;;;;;;;3.50;3.00;;;;;;;;;;5133309;27;20702;-50
2022/03/11 12:50:05;;;;;;;3.75;3.10;;;;;;;;;;5134161;27;20229;-50
2022/03/11 12:52:37;;;;;;;3.60;3.30;;;;;;;;;;5133665;27;20209;-50
2022/03/11 12:55:20;;;;;;;3.95;3.03;;;;;;;;;;5133826;27;20225;-50
2022/03/11 12:57:50;;;;;;;3.15;2.80;;;;;;;;;;5133136;27;20275;-50
2022/03/11 13:00:21;;;;;;;3.70;3.00;;;;;;;;;;5133987;27;20199;-50
2022/03/11 13:02:49;;;;;;;3.08;2.78;;;;;;;;;;5133962;27;20198;-50
2022/03/11 13:05:20;;;;;;;3.35;2.92;;;;;;;;;;5134770;27;20210;-50
2022/03/11 13:07:47;;;;;;;3.53;2.70;;;;;;;;;;5133949;27;20378;-50
2022/03/11 13:10:18;;;;;;;3.88;2.65;;;;;;;;;;5133676;27;20299;-50
2022/03/11 13:12:46;;;;;;;3.50;2.58;;;;;;;;;;5134385;27;20437;-50
2022/03/11 13:15:16;;;;;;;4.05;2.78;;;;;;;;;;5133805;27;20210;-50
2022/03/11 13:17:44;;;;;;;4.93;2.80;;;;;;;;;;5134478;27;20482;-50
2022/03/11 13:20:26;;;;;;;2.88;2.60;;;;;;;;;;5134520;27;20600;-50
2022/03/11 13:22:54;;;;;;;3.15;2.63;;;;;;;;;;5133479;27;20213;-50
2022/03/11 13:25:25;;;;;;;2.92;2.63;;;;;;;;;;5133612;27;20206;-50
2022/03/11 13:27:53;;;;;;;2.90;2.35;;;;;;;;;;5133424;27;20202;-50
2022/03/11 13:30:30;;;;;;;3.53;2.80;;;;;;;;;;5134524;27;20222;-50
2022/03/11 13:32:58;;;;;;;3.10;2.80;;;;;;;;;;5134053;27;20550;-50
2022/03/11 13:35:29;;;;;;;3.38;2.88;;;;;;;;;;5134097;27;20703;-50
2022/03/11 13:37:59;;;;;;;3.80;2.70;;;;;;;;;;5134892;27;20194;-50
2022/03/11 13:40:29;;;;;;;3.10;2.70;;;;;;;;;;5136624;27;20199;-50
2022/03/11 13:42:57;;;;;;;3.47;2.75;;;;;;;;;;5134998;27;20220;-50
2022/03/11 13:45:28;;;;;;;3.08;2.53;;;;;;;;;;5135310;27;20225;-50
2022/03/11 13:48:06;;;;;;;2.92;2.47;;;;;;;;;;5134385;27;20645;-50
2022/03/11 13:50:33;;;;;;;3.03;2.72;;;;;;;;;;5133693;27;20224;-50
2022/03/11 13:53:02;;;;;;;2.53;2.33;;;;;;;;;;5133061;27;20293;-50
2022/03/11 13:55:35;;;;;;;3.20;2.90;;;;;;;;;;5132495;27;20300;-50
2022/03/11 13:58:15;;;;;;;2.75;2.50;;;;;;;;;;5132642;27;20202;-50
2022/03/11 14:00:42;;;;;;;2.75;2.55;;;;;;;;;;5134327;27;20214;-50
2022/03/11 14:03:16;;;;;;;3.08;2.50;;;;;;;;;;5132357;27;20202;-50
2022/03/11 14:05:44;;;;;;;3.03;2.58;;;;;;;;;;5131771;27;20228;-50
2022/03/11 14:08:14;;;;;;;2.60;2.40;;;;;;;;;;5132928;27;20200;-50
2022/03/11 14:10:45;;;;;;;2.85;2.50;;;;;;;;;;5132213;27;20252;-50
2022/03/11 14:13:15;;;;;;;3.00;2.33;;;;;;;;;;5133257;27;20217;-50
2022/03/11 14:15:44;;;;;;;3.25;2.70;;;;;;;;;;5133431;27;20218;-50
2022/03/11 14:18:12;;;;;;;2.60;2.40;;;;;;;;;;5134152;27;20449;-50
2022/03/11 14:20:40;;;;;;;2.78;2.58;;;;;;;;;;5132241;27;20202;-50
2022/03/11 14:23:08;;;;;;;2.63;2.42;;;;;;;;;;5132345;27;20202;-50
2022/03/11 14:25:35;;;;;;;2.40;2.20;;;;;;;;;;5133538;27;20233;-50
2022/03/11 14:28:07;;;;;;;2.47;2.22;;;;;;;;;;5133425;27;20203;-50
2022/03/11 14:30:34;;;;;;;2.55;2.35;;;;;;;;;;5131906;27;20305;-50
2022/03/11 14:33:01;;;;;;;3.58;2.50;;;;;;;;;;5132538;27;20205;-50
2022/03/11 14:35:29;;;;;;;2.95;2.65;;;;;;;;;;5131830;27;20213;-50
2022/03/11 14:37:56;;;;;;;2.85;2.60;;;;;;;;;;5133799;27;20242;-50
2022/03/11 14:40:24;;;;;;;2.72;2.53;;;;;;;;;;5132722;27;20202;-50
2022/03/11 14:42:51;;;;;;;2.83;2.22;;;;;;;;;;5132648;27;20209;-50
2022/03/11 14:45:20;;;;;;;2.45;2.25;;;;;;;;;;5132948;27;20271;-50
2022/03/11 14:47:47;;;;;;;2.78;2.25;;;;;;;;;;5132188;27;20221;-50
2022/03/11 14:50:15;;;;;;;3.08;2.40;;;;;;;;;;5132186;27;20201;-50
2022/03/11 14:52:43;;;;;;;3.03;2.33;;;;;;;;;;5132483;27;20202;-50
2022/03/11 14:55:12;;;;;;;2.80;2.15;;;;;;;;;;5130910;27;20203;-50